createdAt,value
2023-12-15T04:38:59.408Z,101005.59
2023-12-15T04:42:02.733Z,101005.59
2023-12-15T04:45:09.442Z,101015.88
2023-12-15T04:48:12.612Z,101028.88
2023-12-15T04:51:15.471Z,101034.81
2023-12-15T04:54:18.668Z,101042.56
2023-12-15T04:57:21.497Z,101051.31
2023-12-15T05:00:24.457Z,101054.72
2023-12-15T05:03:27.395Z,101072.97
2023-12-15T05:06:30.562Z,101071.22
2023-12-15T05:09:33.125Z,101080.81
2023-12-15T05:12:37.120Z,101086.03
2023-12-15T05:15:39.928Z,101080.81
2023-12-15T05:18:43.030Z,101079.03
2023-12-15T05:21:45.576Z,101092.88
2023-12-15T05:24:48.648Z,101103.25
2023-12-15T05:27:51.387Z,101103.22
2023-12-15T05:30:54.856Z,101100.56
2023-12-15T05:33:57.709Z,101113.59
2023-12-15T05:37:00.492Z,101117.12
2023-12-15T05:40:04.468Z,101126.69
2023-12-15T05:43:07.628Z,101144.91
2023-12-15T05:46:10.805Z,101140.44
2023-12-15T05:49:14.158Z,101143.97
2023-12-15T05:52:20.104Z,101152.69
2023-12-15T05:55:23.024Z,101153.56
2023-12-15T05:58:25.889Z,101164.88
2023-12-15T06:01:28.771Z,101163.09
2023-12-15T06:04:31.850Z,101167.56
2023-12-15T06:07:35.794Z,101178.00
2023-12-15T06:10:39.024Z,101183.19
2023-12-15T06:13:43.249Z,101195.44
2023-12-15T06:16:46.250Z,101196.41
2023-12-15T06:19:48.989Z,101200.75
2023-12-15T06:22:55.593Z,101209.44
2023-12-15T06:25:58.817Z,101206.00
2023-12-15T06:29:01.820Z,101211.25
2023-12-15T06:32:04.980Z,101217.41
2023-12-15T06:35:08.346Z,101231.28
2023-12-15T06:38:11.301Z,101233.06
2023-12-15T06:41:15.385Z,101238.31
2023-12-15T06:44:18.068Z,101236.63
2023-12-15T06:47:20.990Z,101242.66
2023-12-15T06:50:23.907Z,101246.03
2023-12-15T06:53:27.050Z,101248.53
2023-12-15T06:56:29.681Z,101262.47
2023-12-15T06:59:32.810Z,101273.87
2023-12-15T07:02:35.816Z,101284.28
2023-12-15T07:05:38.999Z,101291.22
2023-12-15T07:08:42.493Z,101302.47
2023-12-15T07:11:46.290Z,101304.16
2023-12-15T07:14:49.240Z,101318.13
2023-12-15T07:17:52.333Z,101325.09
2023-12-15T07:20:55.142Z,101326.78
2023-12-15T07:23:58.957Z,101330.28
2023-12-15T07:27:01.635Z,101331.09
2023-12-15T07:30:05.173Z,101333.75
2023-12-15T07:33:09.794Z,101342.41
2023-12-15T07:36:12.901Z,101352.78
2023-12-15T07:39:22.287Z,101360.56
2023-12-15T07:42:25.315Z,101371.78
2023-12-15T07:45:28.339Z,101373.38
2023-12-15T07:48:31.220Z,101385.59
2023-12-15T07:51:34.143Z,101390.72
2023-12-15T07:54:37.437Z,101392.38
2023-12-15T07:57:41.164Z,101402.81
2023-12-15T08:00:44.246Z,101402.78
2023-12-15T08:03:47.635Z,101414.03
2023-12-15T08:06:50.484Z,101429.66
2023-12-15T08:09:53.422Z,101436.66
2023-12-15T08:12:56.632Z,101439.22
2023-12-15T08:15:59.524Z,101444.31
2023-12-15T08:19:06.791Z,101460.78
2023-12-15T08:22:09.943Z,101465.97
2023-12-15T08:25:13.111Z,101466.81
2023-12-15T08:28:16.148Z,101471.25
2023-12-15T08:31:18.914Z,101472.88
2023-12-15T08:34:22.321Z,101487.63
2023-12-15T08:37:25.416Z,101497.19
2023-12-15T08:40:29.079Z,101494.63
2023-12-15T08:43:31.905Z,101499.00
2023-12-15T08:46:36.385Z,101510.22
2023-12-15T08:49:39.328Z,101518.84
2023-12-15T08:52:42.495Z,101513.53
2023-12-15T08:55:46.279Z,101520.47
2023-12-15T08:58:49.223Z,101511.56
2023-12-15T09:01:52.088Z,101526.22
2023-12-15T09:05:02.069Z,101527.97
2023-12-15T09:08:09.043Z,101540.03
2023-12-15T09:11:13.310Z,101534.75
2023-12-15T09:14:17.248Z,101543.34
2023-12-15T09:17:20.378Z,101553.78
2023-12-15T09:20:25.124Z,101556.50
2023-12-15T09:23:28.398Z,101559.97
2023-12-15T09:26:31.502Z,101555.47
2023-12-15T09:29:39.001Z,101564.88
2023-12-15T09:32:44.134Z,101567.28
2023-12-15T09:35:47.262Z,101576.09
2023-12-15T09:38:50.786Z,101582.25
2023-12-15T09:41:54.088Z,101592.50
2023-12-15T09:45:04.286Z,101601.38
2023-12-15T09:48:11.809Z,101599.41
2023-12-15T09:51:26.695Z,101609.03
2023-12-15T09:54:30.427Z,101607.22
2023-12-15T09:57:34.098Z,101609.66
2023-12-15T10:00:37.784Z,101615.88
2023-12-15T10:03:41.027Z,101620.22
2023-12-15T10:06:44.455Z,101626.47
2023-12-15T10:09:48.246Z,101629.41
2023-12-15T10:12:51.163Z,101627.94
2023-12-15T10:15:54.125Z,101623.59
2023-12-15T10:18:57.101Z,101629.81
2023-12-15T10:22:03.206Z,101627.97
2023-12-15T10:25:22.316Z,101635.81
2023-12-15T10:28:25.261Z,101639.41
2023-12-15T10:31:28.455Z,101655.88
2023-12-15T10:34:31.485Z,101664.47
2023-12-15T10:37:35.572Z,101662.62
2023-12-15T10:40:38.581Z,101650.47
2023-12-15T10:43:43.587Z,101662.72
2023-12-15T10:46:48.410Z,101662.91
2023-12-15T10:49:53.713Z,101671.00
2023-12-15T10:52:57.701Z,101664.75
2023-12-15T10:56:01.349Z,101675.03
2023-12-15T10:59:06.474Z,101676.66
2023-12-15T11:02:12.340Z,101683.69
2023-12-15T11:05:20.793Z,101681.19
2023-12-15T11:08:29.116Z,101687.91
2023-12-15T11:11:33.216Z,101691.19
2023-12-15T11:14:36.615Z,101685.69
2023-12-15T11:18:09.434Z,101695.13
2023-12-15T11:21:13.080Z,101694.06
2023-12-15T11:24:16.844Z,101701.81
2023-12-15T11:27:19.403Z,101691.25
2023-12-15T11:30:29.897Z,101699.94
2023-12-15T11:33:41.212Z,101702.44
2023-12-15T11:36:46.175Z,101700.69
2023-12-15T11:39:50.372Z,101698.97
2023-12-15T11:42:53.426Z,101709.50
2023-12-15T11:45:56.697Z,101711.53
2023-12-15T11:48:59.905Z,101712.38
2023-12-15T11:52:06.030Z,101714.13
2023-12-15T11:55:09.476Z,101723.62
2023-12-15T11:58:12.360Z,101722.81
2023-12-15T12:01:18.409Z,101716.84
2023-12-15T12:04:21.655Z,101708.94
2023-12-15T12:07:24.480Z,101713.03
2023-12-15T12:10:40.621Z,101723.34
2023-12-15T12:13:43.547Z,101720.72
2023-12-15T12:16:52.457Z,101729.38
2023-12-15T12:19:55.746Z,101724.38
2023-12-15T12:23:00.049Z,101725.91
2023-12-15T12:26:03.771Z,101728.94
2023-12-15T12:29:06.832Z,101732.00
2023-12-15T12:32:10.635Z,101737.09
2023-12-15T12:35:13.948Z,101746.84
2023-12-15T12:38:16.652Z,101744.12
2023-12-15T12:41:19.847Z,101749.63
2023-12-15T12:44:22.917Z,101759.31
2023-12-15T12:47:29.241Z,101767.19
2023-12-15T12:50:33.193Z,101762.78
2023-12-15T12:53:37.723Z,101763.47
2023-12-15T12:56:50.584Z,101768.91
2023-12-15T13:00:01.733Z,101767.25
2023-12-15T13:03:05.408Z,101770.75
2023-12-15T13:06:10.170Z,101783.84
2023-12-15T13:09:19.598Z,101791.97
2023-12-15T13:12:22.960Z,101794.66
2023-12-15T13:15:25.953Z,101797.09
2023-12-15T13:18:29.050Z,101806.00
2023-12-15T13:21:32.165Z,101805.25
2023-12-15T13:24:43.339Z,101815.94
2023-12-15T13:27:50.205Z,101823.16
2023-12-15T13:30:53.638Z,101821.34
2023-12-15T13:33:57.619Z,101824.84
2023-12-15T13:37:00.601Z,101824.94
2023-12-15T13:40:05.378Z,101838.09
2023-12-15T13:43:08.691Z,101833.81
2023-12-15T13:46:12.068Z,101847.09
2023-12-15T13:49:17.042Z,101848.91
2023-12-15T13:52:20.713Z,101851.75
2023-12-15T13:55:24.297Z,101865.84
2023-12-15T13:58:27.366Z,101869.53
2023-12-15T14:01:30.281Z,101872.34
2023-12-15T14:04:33.265Z,101878.63
2023-12-15T14:07:36.608Z,101879.56
2023-12-15T14:10:39.839Z,101882.34
2023-12-15T14:13:42.540Z,101890.25
2023-12-15T14:16:47.835Z,101902.53
2023-12-15T14:19:51.485Z,101893.06
2023-12-15T14:22:55.453Z,101897.44
2023-12-15T14:25:58.413Z,101906.28
2023-12-15T14:29:04.528Z,101914.16
2023-12-15T14:32:07.651Z,101920.34
2023-12-15T14:35:11.335Z,101921.25
2023-12-15T14:38:14.086Z,101912.59
2023-12-15T14:41:17.396Z,101929.16
2023-12-15T14:44:20.203Z,101935.28
2023-12-15T14:47:23.397Z,101940.53
2023-12-15T14:50:26.215Z,101947.50
2023-12-15T14:53:29.062Z,101949.25
2023-12-15T14:56:31.707Z,101958.81
2023-12-15T14:59:35.206Z,101967.53
2023-12-15T15:02:38.160Z,101971.00
2023-12-15T15:05:41.554Z,101979.69
2023-12-15T15:08:45.263Z,101978.81
2023-12-15T15:11:49.180Z,101984.00
2023-12-15T15:14:51.999Z,101995.31
2023-12-15T15:17:55.091Z,101996.97
2023-12-15T15:20:57.781Z,101999.50
2023-12-15T15:24:00.877Z,102005.50
2023-12-15T15:27:04.321Z,102016.69
2023-12-15T15:30:09.923Z,102016.78
2023-12-15T15:33:13.148Z,102012.41
2023-12-15T15:36:17.735Z,102020.09
2023-12-15T15:39:21.256Z,102025.19
2023-12-15T15:42:24.367Z,102030.31
2023-12-15T15:45:27.330Z,102023.34
2023-12-15T15:48:34.349Z,102029.50
2023-12-15T15:51:37.341Z,102032.91
2023-12-15T15:54:44.269Z,102038.91
2023-12-15T15:57:47.338Z,102050.94
2023-12-15T16:00:50.662Z,102056.09
2023-12-15T16:03:53.717Z,102062.06
2023-12-15T16:06:56.444Z,102058.41
2023-12-15T16:10:00.072Z,102071.31
2023-12-15T16:13:03.043Z,102078.25
2023-12-15T16:16:06.994Z,102080.81
2023-12-15T16:19:10.663Z,102081.59
2023-12-15T16:22:14.250Z,102091.13
2023-12-15T16:25:17.166Z,102092.81
2023-12-15T16:28:20.144Z,102110.22
2023-12-15T16:31:23.033Z,102114.47
2023-12-15T16:34:27.823Z,102124.75
2023-12-15T16:37:30.661Z,102123.06
2023-12-15T16:40:33.528Z,102134.09
2023-12-15T16:43:36.806Z,102134.78
2023-12-15T16:46:39.841Z,102138.19
2023-12-15T16:49:45.335Z,102146.66
2023-12-15T16:52:48.826Z,102149.91
2023-12-15T16:55:51.677Z,102151.66
2023-12-15T16:58:54.712Z,102165.56
2023-12-15T17:01:57.408Z,102169.19
2023-12-15T17:05:01.910Z,102168.19
2023-12-15T17:08:07.398Z,102168.97
2023-12-15T17:11:14.608Z,102173.16
2023-12-15T17:14:17.409Z,102180.81
2023-12-15T17:17:20.618Z,102181.59
2023-12-15T17:20:23.467Z,102194.53
2023-12-15T17:23:26.731Z,102195.41
2023-12-15T17:26:29.894Z,102199.63
2023-12-15T17:29:39.933Z,102211.69
2023-12-15T17:32:49.880Z,102212.56
2023-12-15T17:35:52.817Z,102223.19
2023-12-15T17:38:55.628Z,102238.03
2023-12-15T17:41:58.589Z,102236.22
2023-12-15T17:45:01.159Z,102245.62
2023-12-15T17:48:04.508Z,102250.28
2023-12-15T17:51:07.931Z,102259.44
2023-12-15T17:54:10.845Z,102261.69
2023-12-15T17:57:13.700Z,102261.38
2023-12-15T18:00:16.841Z,102263.75
2023-12-15T18:03:22.280Z,102272.31
2023-12-15T18:06:25.221Z,102274.78
2023-12-15T18:09:28.469Z,102276.38
2023-12-15T18:12:31.481Z,102280.03
2023-12-15T18:15:35.380Z,102288.66
2023-12-15T18:18:39.075Z,102298.00
2023-12-15T18:21:42.453Z,102302.56
2023-12-15T18:24:45.401Z,102308.13
2023-12-15T18:27:48.338Z,102310.78
2023-12-15T18:30:51.523Z,102310.69
2023-12-15T18:33:54.850Z,102314.63
2023-12-15T18:37:01.330Z,102317.72
2023-12-15T18:40:06.652Z,102310.47
2023-12-15T18:43:09.444Z,102322.31
2023-12-15T18:46:21.514Z,102321.16
2023-12-15T18:49:24.473Z,102325.31
2023-12-15T18:52:27.614Z,102332.88
2023-12-15T18:55:30.276Z,102334.50
2023-12-15T18:58:33.344Z,102340.44
2023-12-15T19:01:36.423Z,102342.03
2023-12-15T19:04:42.195Z,102347.88
2023-12-15T19:07:46.591Z,102346.84
2023-12-15T19:10:51.291Z,102351.06
2023-12-15T19:13:54.837Z,102354.53
2023-12-15T19:16:58.132Z,102355.16
2023-12-15T19:20:00.987Z,102355.00
2023-12-15T19:23:04.283Z,102347.91
2023-12-15T19:26:08.989Z,102356.50
2023-12-15T19:29:12.804Z,102351.22
2023-12-15T19:32:15.435Z,102350.31
2023-12-15T19:35:18.690Z,102348.47
2023-12-15T19:38:21.951Z,102350.22
2023-12-15T19:41:25.240Z,102358.84
2023-12-15T19:44:30.833Z,102361.19
2023-12-15T19:47:34.125Z,102359.63
2023-12-15T19:50:37.147Z,102357.88
2023-12-15T19:53:40.015Z,102362.94
2023-12-15T19:56:43.462Z,102373.13
2023-12-15T19:59:47.533Z,102378.13
2023-12-15T20:02:50.491Z,102372.97
2023-12-15T20:05:53.684Z,102366.81
2023-12-15T20:09:05.692Z,102376.34
2023-12-15T20:12:08.927Z,102374.56
2023-12-15T20:15:13.004Z,102376.28
2023-12-15T20:18:15.986Z,102375.34
2023-12-15T20:21:22.970Z,102384.81
2023-12-15T20:24:29.565Z,102389.00
2023-12-15T20:27:43.275Z,102382.06
2023-12-15T20:30:48.007Z,102386.19
2023-12-15T20:33:51.136Z,102389.66
2023-12-15T20:36:54.761Z,102392.19
2023-12-15T20:39:57.931Z,102388.63
2023-12-15T20:43:01.126Z,102391.03
